Time;durP1;ratioP1;P1;durP2;ratioP2;P2;SDS_P1;SDS_P2;PMS_P1;PMS_P2;Temp;Humidity;BMP_temperature;BMP_pressure;BME280_temperature;BME280_humidity;BME280_pressure;Samples;Min_cycle;Max_cycle;Signal;HPM_P1;HPM_P2
2022/05/26 00:02:09;;;;;;;1.45;0.90;;;;;;;13.29;89.09;96718.34;5046285;28;20231;-88
2022/05/26 00:04:36;;;;;;;1.38;1.00;;;;;;;13.37;88.74;96720.94;5045930;28;20208;-88
2022/05/26 00:07:02;;;;;;;2.58;1.02;;;;;;;13.26;88.47;96719.53;5046518;28;20387;-89
2022/05/26 00:09:30;;;;;;;1.85;1.30;;;;;;;13.22;89.24;96715.59;5046122;28;20220;-88
2022/05/26 00:11:57;;;;;;;3.15;1.30;;;;;;;12.94;89.71;96711.09;5046026;28;20228;-88
2022/05/26 00:14:23;;;;;;;2.13;1.33;;;;;;;12.92;90.45;96708.66;5045504;28;20205;-89
2022/05/26 00:16:51;;;;;;;1.50;1.15;;;;;;;13.02;90.32;96711.88;5046240;28;20216;-90
2022/05/26 00:19:19;;;;;;;2.58;1.10;;;;;;;12.89;89.95;96710.81;5046762;28;20619;-88
2022/05/26 00:21:47;;;;;;;1.98;1.20;;;;;;;13.01;89.78;96709.41;5045725;28;20645;-90
2022/05/26 00:24:14;;;;;;;3.75;1.17;;;;;;;12.78;90.87;96705.94;5045849;28;20216;-89
2022/05/26 00:26:42;;;;;;;1.30;1.10;;;;;;;12.96;90.27;96717.06;5046623;28;20674;-88
2022/05/26 00:29:08;;;;;;;1.40;1.00;;;;;;;12.91;91.59;96719.41;5046855;28;20705;-90
2022/05/26 00:31:35;;;;;;;2.50;1.10;;;;;;;12.81;90.77;96713.50;5046928;28;20229;-90
2022/05/26 00:34:02;;;;;;;7.17;1.40;;;;;;;12.78;90.03;96709.41;5046163;28;20755;-90
2022/05/26 00:36:42;;;;;;;1.48;1.17;;;;;;;12.81;89.78;96708.22;5046360;28;20205;-87
2022/05/26 00:39:12;;;;;;;3.13;1.30;;;;;;;12.80;92.19;96714.50;5046225;28;20211;-86
2022/05/26 00:41:43;;;;;;;2.53;1.50;;;;;;;12.87;92.50;96720.78;5046669;28;20217;-88
2022/05/26 00:44:10;;;;;;;3.35;1.20;;;;;;;12.87;90.29;96723.41;5045927;28;20209;-88
2022/05/26 00:46:43;;;;;;;3.37;1.23;;;;;;;12.94;90.93;96719.84;5046360;28;20212;-89
2022/05/26 00:49:14;;;;;;;5.22;1.40;;;;;;;12.86;90.24;96719.13;5045787;28;20225;-90
2022/05/26 00:51:41;;;;;;;2.58;1.35;;;;;;;12.77;90.69;96720.16;5045940;28;20229;-89
2022/05/26 00:54:12;;;;;;;3.28;1.60;;;;;;;12.92;90.94;96718.41;5045683;28;20576;-89
2022/05/26 00:56:46;;;;;;;4.05;1.40;;;;;;;12.87;93.04;96718.13;5045925;28;20642;-89
2022/05/26 00:59:17;;;;;;;2.13;1.33;;;;;;;12.97;92.32;96724.81;5045767;28;20204;-90
2022/05/26 01:01:44;;;;;;;5.78;1.33;;;;;;;12.90;91.78;96717.75;5046546;28;20428;-88
2022/05/26 01:04:17;;;;;;;2.75;1.40;;;;;;;12.61;90.49;96715.00;5046090;28;20212;-89
2022/05/26 01:06:47;;;;;;;1.23;1.10;;;;;;;12.77;89.39;96710.41;5045782;28;20438;-86
2022/05/26 01:09:14;;;;;;;1.25;1.10;;;;;;;12.67;89.79;96711.66;5045719;28;20251;-89
2022/05/26 01:11:45;;;;;;;2.20;1.20;;;;;;;12.61;92.25;96715.00;5045777;28;20235;-89
2022/05/26 01:14:15;;;;;;;1.58;1.15;;;;;;;12.51;93.26;96711.81;5045197;28;20209;-89
2022/05/26 01:16:53;;;;;;;1.98;1.20;;;;;;;12.61;90.33;96715.00;5046447;28;20713;-90
2022/05/26 01:19:59;;;;;;;2.42;1.30;;;;;;;12.77;90.12;96717.53;5046026;28;20201;-89
2022/05/26 01:22:40;;;;;;;3.60;1.60;;;;;;;12.79;91.01;96716.34;5000305;28;20224;-89
2022/05/26 01:25:32;;;;;;;3.63;1.30;;;;;;;12.65;89.43;96721.56;5045078;28;20212;-89
2022/05/26 01:28:14;;;;;;;1.15;1.02;;;;;;;12.76;90.07;96724.63;5045114;28;20209;-88
2022/05/26 01:30:46;;;;;;;2.10;1.20;;;;;;;12.56;90.20;96730.56;5045256;28;20581;-90
2022/05/26 01:33:30;;;;;;;4.20;1.20;;;;;;;12.59;92.89;96734.69;5044708;28;20686;-87
2022/05/26 01:36:19;;;;;;;1.53;1.23;;;;;;;12.68;91.76;96739.75;5045901;28;20658;-88
2022/05/26 01:39:01;;;;;;;1.93;1.33;;;;;;;12.51;91.08;96732.94;5045184;28;20208;-89
2022/05/26 01:41:49;;;;;;;3.42;1.10;;;;;;;12.55;89.58;96741.31;5045401;28;20224;-90
2022/05/26 01:44:27;;;;;;;2.07;1.33;;;;;;;12.61;91.55;96740.63;5042879;28;20587;-90
2022/05/26 01:46:59;;;;;;;3.33;1.60;;;;;;;12.51;93.32;96743.53;5044878;28;20209;-87
2022/05/26 01:49:33;;;;;;;3.23;1.70;;;;;;;12.26;94.03;96739.38;5045172;28;20225;-90
2022/05/26 01:52:08;;;;;;;6.50;1.80;;;;;;;12.44;92.53;96733.81;5045077;28;20221;-89
2022/05/26 01:54:44;;;;;;;2.27;1.50;;;;;;;12.49;91.18;96732.28;5044571;28;20205;-90
2022/05/26 01:57:16;;;;;;;3.20;1.70;;;;;;;12.34;92.85;96736.69;5044575;28;20204;-90
2022/05/26 01:59:48;;;;;;;2.67;1.23;;;;;;;12.45;92.67;96723.06;5044930;28;20209;-87
2022/05/26 02:02:19;;;;;;;1.53;1.20;;;;;;;12.41;90.44;96736.78;5044387;28;20236;-89
2022/05/26 02:04:51;;;;;;;2.53;1.40;;;;;;;12.48;90.82;96737.75;5044413;28;20237;-87
2022/05/26 02:07:23;;;;;;;2.13;1.33;;;;;;;12.36;90.09;96739.19;5044695;28;20209;-89
2022/05/26 02:09:53;;;;;;;2.83;1.40;;;;;;;12.44;90.32;96739.91;5044128;28;20225;-89
2022/05/26 02:12:25;;;;;;;1.90;1.33;;;;;;;12.39;90.17;96742.25;5042386;28;20225;-88
2022/05/26 02:15:03;;;;;;;1.73;1.30;;;;;;;12.43;90.99;96740.09;5044792;28;20565;-88
2022/05/26 02:17:32;;;;;;;2.50;1.70;;;;;;;12.33;93.29;96740.34;5044343;28;20205;-89
2022/05/26 02:20:07;;;;;;;2.30;1.47;;;;;;;12.35;91.74;96738.34;5042764;28;20205;-88
2022/05/26 02:22:37;;;;;;;6.63;2.00;;;;;;;12.29;92.89;96739.03;5044475;28;20217;-89
2022/05/26 02:25:08;;;;;;;3.30;1.70;;;;;;;12.34;91.81;96746.44;5044822;28;20205;-88
2022/05/26 02:27:36;;;;;;;3.70;1.73;;;;;;;12.16;90.22;96740.63;5043918;28;20216;-89
2022/05/26 02:30:05;;;;;;;1.63;1.40;;;;;;;11.99;91.18;96747.00;5044425;28;20237;-88
2022/05/26 02:32:36;;;;;;;2.20;1.60;;;;;;;12.08;92.05;96735.38;5044236;28;20217;-89
2022/05/26 02:35:08;;;;;;;2.47;1.40;;;;;;;12.15;91.81;96741.59;5044163;28;20634;-88
2022/05/26 02:37:37;;;;;;;2.47;1.77;;;;;;;12.22;91.86;96738.09;5044622;28;20610;-86
2022/05/26 02:40:05;;;;;;;6.30;1.70;;;;;;;12.25;92.02;96732.44;5044645;28;20208;-89
2022/05/26 02:42:33;;;;;;;1.97;1.40;;;;;;;12.23;90.82;96733.63;5044289;28;20212;-89
2022/05/26 02:45:00;;;;;;;2.10;1.47;;;;;;;12.28;91.44;96731.28;5044222;28;20582;-86
2022/05/26 02:47:41;;;;;;;5.47;1.50;;;;;;;12.34;92.30;96726.09;5044026;28;20212;-88
2022/05/26 02:50:19;;;;;;;4.13;1.70;;;;;;;12.54;92.78;96740.50;5044071;28;20220;-88
2022/05/26 02:53:01;;;;;;;7.67;2.10;;;;;;;12.52;94.47;96749.63;5043595;28;20205;-88
2022/05/26 02:55:35;;;;;;;2.17;1.70;;;;;;;12.51;95.25;96747.97;5043898;28;20209;-87
2022/05/26 02:58:10;;;;;;;3.17;1.83;;;;;;;12.61;95.62;96749.38;5043882;28;20216;-88
2022/05/26 03:00:46;;;;;;;3.77;1.60;;;;;;;12.59;95.85;96747.91;5043748;28;20197;-87
2022/05/26 03:03:20;;;;;;;2.30;1.60;;;;;;;12.56;97.01;96741.13;5043412;28;20213;-88
2022/05/26 03:05:56;;;;;;;2.92;1.75;;;;;;;12.75;96.91;96740.66;5043520;28;20281;-89
2022/05/26 03:08:25;;;;;;;3.37;1.80;;;;;;;12.83;97.59;96737.97;5043301;28;20205;-90
2022/05/26 03:10:54;;;;;;;2.53;2.00;;;;;;;12.82;97.34;96742.41;5043896;28;20243;-88
2022/05/26 03:13:20;;;;;;;7.22;1.95;;;;;;;12.89;96.08;96742.56;5042797;28;20639;-89
2022/05/26 03:15:47;;;;;;;4.87;2.63;;;;;;;12.80;97.77;96743.59;5043956;28;20209;-89
2022/05/26 03:18:13;;;;;;;3.77;2.50;;;;;;;12.88;97.45;96741.75;5043756;28;20205;-90
2022/05/26 03:20:40;;;;;;;3.10;2.20;;;;;;;12.93;98.73;96743.84;5043521;28;20232;-87
2022/05/26 03:23:08;;;;;;;4.30;2.50;;;;;;;13.04;99.06;96740.78;5042937;28;20205;-87
2022/05/26 03:25:34;;;;;;;5.40;2.50;;;;;;;12.98;98.96;96746.78;5043632;28;20591;-87
2022/05/26 03:28:01;;;;;;;4.47;2.72;;;;;;;13.01;98.81;96741.16;5043063;28;20209;-89
2022/05/26 03:30:27;;;;;;;5.88;2.90;;;;;;;12.96;98.83;96746.16;5042735;28;21210;-89
2022/05/26 03:32:54;;;;;;;3.55;2.33;;;;;;;13.00;98.42;96755.38;5042952;28;20205;-89
2022/05/26 03:40:55;;;;;;;4.55;2.72;;;;;;;13.27;97.18;96757.44;5043716;28;20267;-87
2022/05/26 03:43:23;;;;;;;4.78;2.63;;;;;;;13.21;96.86;96760.78;5041662;28;20572;-89
2022/05/26 03:45:50;;;;;;;4.75;2.80;;;;;;;13.03;98.04;96761.09;5042969;28;20215;-86
2022/05/26 03:48:16;;;;;;;4.45;2.72;;;;;;;13.00;97.84;96768.59;5043819;28;20211;-89
2022/05/26 03:50:43;;;;;;;4.10;2.70;;;;;;;13.05;98.47;96771.53;5043010;28;20232;-88
2022/05/26 03:53:09;;;;;;;5.03;2.65;;;;;;;13.14;97.46;96765.16;5043257;28;20201;-86
2022/05/26 03:55:36;;;;;;;3.00;2.17;;;;;;;13.03;98.36;96771.69;5043266;28;20774;-89
2022/05/26 03:58:05;;;;;;;7.30;2.47;;;;;;;13.17;97.97;96778.84;5043750;28;20198;-89
2022/05/26 04:00:32;;;;;;;6.85;2.50;;;;;;;13.26;97.15;96782.25;5043235;28;20201;-89
2022/05/26 04:02:59;;;;;;;6.30;2.67;;;;;;;13.22;97.18;96773.84;5042777;28;20206;-89
2022/05/26 04:05:26;;;;;;;3.97;2.55;;;;;;;13.24;96.95;96784.22;5042843;28;20316;-89
2022/05/26 04:07:53;;;;;;;2.80;2.25;;;;;;;13.22;97.85;96787.06;5043452;28;20208;-89
2022/05/26 04:10:20;;;;;;;7.32;2.72;;;;;;;13.26;98.14;96780.41;5043287;28;20663;-86
2022/05/26 04:12:47;;;;;;;3.50;2.42;;;;;;;13.28;98.53;96783.72;5042926;28;20219;-89
2022/05/26 04:15:17;;;;;;;6.00;2.78;;;;;;;13.49;97.83;96797.91;5043515;28;20215;-89
2022/05/26 04:17:44;;;;;;;3.85;2.55;;;;;;;13.52;97.63;96794.88;5043506;28;20212;-88
2022/05/26 04:20:15;;;;;;;4.38;2.55;;;;;;;13.68;96.37;96799.16;5043077;28;20197;-89
2022/05/26 04:22:42;;;;;;;3.20;2.35;;;;;;;13.66;96.71;96801.19;5042458;28;20225;-89
2022/05/26 04:25:09;;;;;;;4.72;2.30;;;;;;;13.79;97.19;96802.19;5043786;28;20212;-88
2022/05/26 04:27:36;;;;;;;6.82;2.13;;;;;;;13.77;98.29;96803.38;5045696;28;20209;-89
2022/05/26 04:30:04;;;;;;;4.78;2.55;;;;;;;13.95;98.56;96807.31;5046451;28;20229;-89
2022/05/26 04:32:32;;;;;;;4.72;2.42;;;;;;;14.02;98.27;96813.50;5047010;28;20606;-89
2022/05/26 04:34:59;;;;;;;3.55;2.42;;;;;;;13.98;98.81;96810.41;5046254;28;20201;-88
2022/05/26 04:37:27;;;;;;;2.63;2.10;;;;;;;13.98;98.51;96816.72;5046071;28;20266;-89
2022/05/26 04:39:58;;;;;;;3.70;2.30;;;;;;;14.05;97.66;96808.66;5046431;28;20201;-89
2022/05/26 04:42:25;;;;;;;5.50;2.58;;;;;;;14.03;98.73;96818.63;5047753;28;20221;-90
2022/05/26 04:44:53;;;;;;;4.65;2.42;;;;;;;14.28;98.63;96827.13;5049054;28;20209;-89
2022/05/26 04:47:20;;;;;;;4.07;2.25;;;;;;;14.26;96.50;96822.00;5049278;28;20209;-89
2022/05/26 04:49:48;;;;;;;5.30;2.30;;;;;;;14.50;94.83;96826.16;5049287;28;20236;-89
2022/05/26 04:52:17;;;;;;;8.38;3.10;;;;;;;14.32;97.55;96831.03;5046555;28;20217;-86
2022/05/26 04:54:44;;;;;;;3.92;2.30;;;;;;;14.31;96.56;96829.41;5046274;28;20205;-87
2022/05/26 04:57:12;;;;;;;4.65;2.33;;;;;;;14.58;94.53;96826.06;5046685;28;20201;-89
2022/05/26 04:59:39;;;;;;;2.70;2.22;;;;;;;14.48;96.59;96830.84;5046261;28;20205;-89
2022/05/26 05:02:06;;;;;;;4.03;1.98;;;;;;;14.42;93.23;96831.56;5046281;28;20225;-89
2022/05/26 05:04:32;;;;;;;8.23;2.17;;;;;;;14.62;94.00;96835.28;5045689;28;20568;-90
2022/05/26 05:07:00;;;;;;;5.10;2.15;;;;;;;14.78;94.07;96836.69;5047019;28;20205;-90
2022/05/26 05:09:27;;;;;;;2.85;2.03;;;;;;;14.59;91.54;96839.13;5046278;28;20205;-89
2022/05/26 05:11:53;;;;;;;5.82;1.90;;;;;;;14.76;90.90;96838.69;5046162;28;20466;-88
2022/05/26 05:14:20;;;;;;;3.13;2.10;;;;;;;14.90;93.42;96840.47;5045293;28;20651;-89
2022/05/26 05:16:47;;;;;;;3.80;2.42;;;;;;;15.04;94.00;96842.25;5047256;28;20209;-90
2022/05/26 05:19:15;;;;;;;3.28;2.22;;;;;;;15.37;93.50;96840.75;5046979;28;20232;-90
2022/05/26 05:21:46;;;;;;;6.93;2.25;;;;;;;15.44;91.56;96845.13;5046435;28;20221;-88
2022/05/26 05:24:17;;;;;;;3.85;2.10;;;;;;;15.31;90.08;96844.16;5047020;28;20209;-90
2022/05/26 05:26:50;;;;;;;2.97;2.17;;;;;;;15.44;90.32;96841.63;5046781;28;20209;-88
2022/05/26 05:29:24;;;;;;;2.88;2.10;;;;;;;15.64;91.58;96847.94;5046520;28;20231;-90
2022/05/26 05:31:55;;;;;;;3.05;1.90;;;;;;;15.42;88.29;96847.13;5046286;28;20232;-90
2022/05/26 05:34:26;;;;;;;3.22;2.00;;;;;;;15.79;88.92;96851.31;5045990;28;20244;-89
2022/05/26 05:36:53;;;;;;;3.55;1.80;;;;;;;15.50;87.58;96854.16;5046111;28;20555;-90
2022/05/26 05:39:21;;;;;;;2.72;2.08;;;;;;;15.76;87.49;96854.34;5046237;28;20202;-90
2022/05/26 05:41:47;;;;;;;6.35;2.00;;;;;;;15.33;87.69;96858.09;5047813;28;20281;-88
2022/05/26 05:44:14;;;;;;;3.75;2.03;;;;;;;15.38;88.20;96859.16;5046125;28;20201;-90
2022/05/26 05:46:54;;;;;;;3.40;1.92;;;;;;;15.51;88.02;96858.44;5047303;28;20213;-89
2022/05/26 05:49:22;;;;;;;4.28;2.13;;;;;;;15.51;87.52;96859.25;5045869;28;20587;-90
2022/05/26 05:51:48;;;;;;;4.30;2.00;;;;;;;15.70;89.52;96863.91;5046169;28;20236;-90
2022/05/26 05:54:15;;;;;;;3.47;2.05;;;;;;;15.84;89.94;96871.78;5043625;28;20576;-90
2022/05/26 05:56:43;;;;;;;5.13;2.10;;;;;;;15.93;89.82;96861.81;5044767;28;20209;-88
2022/05/26 05:59:09;;;;;;;3.95;2.30;;;;;;;15.75;85.53;96871.31;5045840;28;20205;-90
2022/05/26 06:01:36;;;;;;;7.13;1.92;;;;;;;15.75;87.37;96871.31;5045713;28;20241;-92
2022/05/26 06:04:03;;;;;;;5.32;2.08;;;;;;;15.91;86.32;96875.31;5044745;28;20205;-91
2022/05/26 06:06:36;;;;;;;2.63;1.88;;;;;;;16.04;84.14;96878.06;5045183;28;20204;-90
2022/05/26 06:09:02;;;;;;;3.53;1.60;;;;;;;16.04;85.86;96882.56;5045844;28;20258;-89
2022/05/26 06:11:29;;;;;;;2.83;2.17;;;;;;;15.73;84.30;96882.13;5045692;28;20487;-91
2022/05/26 06:13:57;;;;;;;2.70;1.90;;;;;;;16.19;83.76;96888.56;5044896;28;20705;-89
2022/05/26 06:16:23;;;;;;;1.90;1.52;;;;;;;16.07;82.65;96885.63;5045589;28;20213;-90
2022/05/26 06:18:50;;;;;;;2.30;1.88;;;;;;;16.23;84.14;96893.31;5045525;28;20223;-90
2022/05/26 06:21:17;;;;;;;2.22;1.52;;;;;;;16.46;81.29;96893.06;5046695;28;20241;-88
2022/05/26 06:23:44;;;;;;;2.60;1.55;;;;;;;16.31;80.76;96889.72;5045650;28;20209;-89
2022/05/26 06:26:10;;;;;;;2.13;1.50;;;;;;;16.57;80.76;96890.66;5045207;28;20208;-92
2022/05/26 06:31:23;;;;;;;2.15;1.40;;;;;;;16.81;80.17;96890.16;5049515;28;20332;-89
2022/05/26 06:39:18;;;;;;;3.78;1.40;;;;;;;17.06;79.06;96897.41;5048261;28;20208;-92
2022/05/26 06:44:28;;;;;;;1.60;1.40;;;;;;;17.13;78.66;96892.91;5047971;28;20207;-90
2022/05/26 06:46:56;;;;;;;3.95;1.40;;;;;;;17.41;80.53;96894.44;5048526;28;20796;-90
2022/05/26 06:49:23;;;;;;;4.07;1.35;;;;;;;17.03;76.30;96899.63;5047187;28;20216;-90
2022/05/26 06:51:49;;;;;;;2.03;1.40;;;;;;;16.96;76.09;96896.13;5049067;28;20240;-89
2022/05/26 06:54:16;;;;;;;6.10;1.33;;;;;;;17.39;75.34;96903.66;5048932;28;20216;-89
2022/05/26 06:56:42;;;;;;;2.45;1.20;;;;;;;17.35;74.31;96897.91;5049146;28;20227;-90
2022/05/26 06:59:08;;;;;;;1.10;1.00;;;;;;;17.14;74.58;96899.88;5047935;28;20204;-89
2022/05/26 07:01:35;;;;;;;1.67;1.00;;;;;;;17.15;74.06;96907.66;5047731;28;20224;-86
2022/05/26 07:04:03;;;;;;;5.93;0.93;;;;;;;17.06;75.64;96915.22;5046513;28;20205;-89
2022/05/26 07:06:30;;;;;;;1.20;1.00;;;;;;;17.06;75.51;96907.25;5045676;28;20573;-89
2022/05/26 07:08:57;;;;;;;1.25;1.10;;;;;;;16.94;75.28;96914.16;5046557;28;20204;-89
2022/05/26 07:11:24;;;;;;;2.13;1.38;;;;;;;17.05;74.61;96906.41;5046122;28;20649;-88
2022/05/26 07:13:50;;;;;;;3.03;1.20;;;;;;;17.28;74.87;96906.91;5045306;28;20826;-90
2022/05/26 07:16:17;;;;;;;1.52;1.20;;;;;;;17.48;75.65;96911.25;5046190;28;20282;-90
2022/05/26 07:18:43;;;;;;;1.45;1.30;;;;;;;17.61;74.62;96910.44;5045868;28;20675;-90
2022/05/26 07:21:11;;;;;;;1.35;1.00;;;;;;;17.93;74.11;96905.09;5045570;28;20221;-88
2022/05/26 07:23:38;;;;;;;1.02;0.88;;;;;;;17.87;71.53;96912.09;5045246;28;20465;-88
2022/05/26 07:26:05;;;;;;;1.33;0.90;;;;;;;18.15;70.84;96914.53;5046258;28;20581;-90
2022/05/26 07:28:33;;;;;;;1.98;1.00;;;;;;;17.98;68.59;96910.66;5044902;28;20270;-87
2022/05/26 07:31:00;;;;;;;3.20;1.10;;;;;;;18.14;67.19;96905.72;5046168;28;20717;-89
2022/05/26 07:33:26;;;;;;;1.15;0.80;;;;;;;18.12;65.48;96920.28;5046130;28;20685;-89
2022/05/26 07:35:53;;;;;;;1.67;0.90;;;;;;;18.07;64.55;96914.75;5045923;28;20205;-90
2022/05/26 07:41:17;;;;;;;0.40;0.40;;;;;;;18.11;60.04;96927.44;5046440;28;20228;-88
2022/05/26 07:43:47;;;;;;;0.93;0.63;;;;;;;18.05;61.18;96919.44;5045487;28;20201;-89
2022/05/26 07:46:14;;;;;;;0.52;0.52;;;;;;;17.84;61.86;96923.16;5046346;28;20208;-89
2022/05/26 07:48:41;;;;;;;3.15;0.50;;;;;;;18.04;61.55;96920.50;5046698;28;20208;-88
2022/05/26 07:51:07;;;;;;;0.50;0.50;;;;;;;17.95;61.29;96921.72;5045843;28;20601;-88
2022/05/26 07:53:35;;;;;;;1.10;0.60;;;;;;;18.34;60.64;96923.34;5046473;28;20197;-89
2022/05/26 07:56:02;;;;;;;1.98;1.42;;;;;;;18.37;60.44;96922.13;5045375;28;20201;-90
2022/05/26 07:58:29;;;;;;;1.42;0.50;;;;;;;18.71;61.37;96922.66;5045465;28;20205;-89
2022/05/26 08:00:55;;;;;;;2.88;0.70;;;;;;;18.48;62.89;96919.63;5046327;28;20709;-89
2022/05/26 08:03:22;;;;;;;2.58;1.58;;;;;;;18.62;62.63;96925.75;5043829;28;20239;-89
2022/05/26 08:05:49;;;;;;;2.13;0.80;;;;;;;18.69;62.97;96919.34;5044027;28;20201;-90
2022/05/26 08:08:16;;;;;;;0.55;0.55;;;;;;;18.78;60.60;96928.78;5043548;28;20201;-87
2022/05/26 08:10:44;;;;;;;1.25;0.80;;;;;;;19.03;61.13;96927.03;5044158;28;20240;-89
2022/05/26 08:13:11;;;;;;;1.88;0.57;;;;;;;18.90;60.17;96932.41;5044068;28;20507;-90
2022/05/26 08:15:37;;;;;;;3.75;1.08;;;;;;;18.90;60.00;96924.41;5044071;28;20201;-89
2022/05/26 08:18:04;;;;;;;1.80;0.60;;;;;;;19.02;61.32;96933.41;5045682;28;20208;-88
2022/05/26 08:20:31;;;;;;;2.75;0.60;;;;;;;19.20;61.35;96928.22;5047517;28;20205;-90
2022/05/26 08:22:57;;;;;;;0.95;0.70;;;;;;;19.02;59.72;96936.09;5047832;28;20205;-88
2022/05/26 08:25:26;;;;;;;1.88;0.80;;;;;;;18.95;61.54;96928.09;5047073;28;20583;-88
2022/05/26 08:27:54;;;;;;;2.80;0.80;;;;;;;19.25;62.07;96931.06;5047768;28;20236;-89
2022/05/26 08:30:20;;;;;;;5.20;1.08;;;;;;;19.32;59.94;96940.72;5047089;28;20588;-90
2022/05/26 08:32:46;;;;;;;0.98;0.70;;;;;;;20.08;62.75;96932.38;5048022;28;20229;-89
2022/05/26 08:35:14;;;;;;;0.73;0.70;;;;;;;20.49;58.95;96938.78;5046674;28;20659;-89
2022/05/26 08:37:40;;;;;;;2.75;0.70;;;;;;;20.37;61.76;96942.41;5047133;28;20220;-87
2022/05/26 08:40:09;;;;;;;1.15;0.65;;;;;;;20.37;59.21;96932.50;5048038;28;20217;-90
2022/05/26 08:42:37;;;;;;;0.88;0.77;;;;;;;19.72;57.71;96936.75;5047050;28;20252;-91
2022/05/26 08:45:09;;;;;;;1.20;0.70;;;;;;;19.70;57.90;96933.47;5047717;28;20274;-89
2022/05/26 08:47:42;;;;;;;1.63;0.70;;;;;;;19.80;58.11;96939.97;5048576;28;20197;-89
2022/05/26 08:50:11;;;;;;;3.15;0.90;;;;;;;19.95;58.23;96943.19;5046947;28;20220;-89
2022/05/26 08:52:56;;;;;;;1.83;0.80;;;;;;;20.05;59.31;96932.81;5046668;28;20227;-90
2022/05/26 08:55:27;;;;;;;2.45;0.77;;;;;;;19.87;57.21;96932.72;5046603;28;20236;-89
2022/05/26 08:58:00;;;;;;;1.05;0.65;;;;;;;20.04;57.02;96938.38;5047164;28;20201;-88
2022/05/26 09:00:28;;;;;;;1.83;0.90;;;;;;;19.98;58.80;96933.91;5049683;28;20288;-90
2022/05/26 09:02:58;;;;;;;3.63;0.60;;;;;;;20.05;57.25;96935.50;5045940;28;20205;-87
2022/05/26 09:05:25;;;;;;;1.73;0.60;;;;;;;20.00;56.87;96946.03;5046022;28;20554;-88
2022/05/26 09:13:32;;;;;;;0.95;0.70;;;;;;;20.21;58.56;96943.78;5045014;28;20216;-89
2022/05/26 09:16:03;;;;;;;0.57;0.40;;;;;;;20.99;56.78;96948.34;5046807;28;20205;-86
2022/05/26 09:18:29;;;;;;;0.95;0.63;;;;;;;20.59;55.47;96940.94;5047101;28;20209;-88
2022/05/26 09:21:13;;;;;;;3.28;0.80;;;;;;;21.21;56.71;96936.13;5046441;28;20229;-87
2022/05/26 09:23:42;;;;;;;0.93;0.68;;;;;;;21.26;54.82;96939.78;5046195;28;20385;-91
2022/05/26 09:26:12;;;;;;;0.95;0.60;;;;;;;21.40;55.30;96941.22;5046898;28;20445;-89
2022/05/26 09:28:44;;;;;;;1.95;0.77;;;;;;;21.00;55.06;96940.09;5044877;28;20216;-90
2022/05/26 09:31:25;;;;;;;1.45;0.70;;;;;;;20.65;56.15;96929.34;5045650;28;20599;-90
2022/05/26 09:34:04;;;;;;;4.68;0.70;;;;;;;20.41;56.16;96932.91;5046338;28;20585;-89
2022/05/26 09:36:36;;;;;;;1.90;0.88;;;;;;;20.72;57.25;96936.28;5046852;28;20205;-90
2022/05/26 09:39:03;;;;;;;1.42;0.70;;;;;;;20.72;57.12;96936.28;5045378;28;20693;-89
2022/05/26 09:41:37;;;;;;;3.80;0.80;;;;;;;20.75;55.53;96935.84;5046901;28;20221;-89
2022/05/26 09:44:06;;;;;;;1.20;0.82;;;;;;;20.72;57.38;96932.78;5045724;28;20212;-89
2022/05/26 09:46:34;;;;;;;0.70;0.57;;;;;;;20.71;54.62;96934.66;5046278;28;20205;-90
2022/05/26 09:49:11;;;;;;;1.13;0.63;;;;;;;20.98;56.22;96941.38;5045704;28;20205;-89
2022/05/26 09:51:43;;;;;;;0.73;0.55;;;;;;;20.87;54.50;96940.25;5045186;28;20260;-88
2022/05/26 09:54:23;;;;;;;2.53;0.68;;;;;;;21.38;53.84;96943.31;5045951;28;20201;-88
2022/05/26 09:56:50;;;;;;;1.80;0.85;;;;;;;21.69;51.49;96941.25;5044572;28;20220;-89
2022/05/26 09:59:24;;;;;;;1.80;0.73;;;;;;;21.76;52.11;96936.59;5045365;28;20205;-89
2022/05/26 10:01:59;;;;;;;1.90;0.60;;;;;;;22.03;51.84;96942.38;5044912;28;20227;-88
2022/05/26 10:04:42;;;;;;;0.60;0.40;;;;;;;21.75;49.31;96936.84;5045105;28;20287;-90
2022/05/26 10:07:17;;;;;;;0.60;0.40;;;;;;;21.22;48.11;96945.78;5045316;28;20278;-90
2022/05/26 10:09:54;;;;;;;0.25;0.25;;;;;;;21.02;48.81;96951.41;5045768;28;20207;-89
2022/05/26 10:12:31;;;;;;;1.88;0.70;;;;;;;21.09;51.26;96940.59;5044070;28;20244;-88
2022/05/26 10:15:12;;;;;;;0.40;0.40;;;;;;;20.96;47.71;96943.44;5046002;28;20296;-90
2022/05/26 10:17:54;;;;;;;0.32;0.32;;;;;;;21.06;50.24;96944.53;5045680;28;20201;-89
2022/05/26 10:20:32;;;;;;;0.88;0.47;;;;;;;20.65;48.89;96946.22;5044828;28;20209;-88
2022/05/26 10:23:17;;;;;;;0.52;0.40;;;;;;;20.68;48.69;96951.13;5044934;28;20228;-89
2022/05/26 10:25:51;;;;;;;4.90;0.52;;;;;;;20.77;50.52;96943.66;5044681;28;20274;-88
2022/05/26 10:28:48;;;;;;;0.52;0.40;;;;;;;20.63;50.25;96948.31;5044107;28;20519;-89
2022/05/26 10:31:29;;;;;;;1.50;0.93;;;;;;;20.38;51.18;96944.06;5043702;28;20240;-89
2022/05/26 10:34:23;;;;;;;1.88;0.45;;;;;;;20.39;50.64;96956.38;5044234;28;20205;-90
2022/05/26 10:37:09;;;;;;;2.17;0.30;;;;;;;20.47;51.28;96959.59;5041574;28;20213;-90
2022/05/26 10:39:53;;;;;;;0.88;0.38;;;;;;;20.69;49.74;96949.28;5043242;28;20201;-89
2022/05/26 10:42:25;;;;;;;1.13;0.75;;;;;;;20.44;48.60;96949.34;5043959;28;20252;-89
2022/05/26 10:45:05;;;;;;;0.47;0.40;;;;;;;20.46;49.53;96949.91;5043926;28;20209;-91
2022/05/26 10:47:37;;;;;;;0.90;0.40;;;;;;;20.49;50.00;96946.81;5044244;28;20205;-90
2022/05/26 10:50:18;;;;;;;0.63;0.50;;;;;;;20.72;51.00;96948.84;5043038;28;20209;-89
2022/05/26 10:52:50;;;;;;;1.25;0.50;;;;;;;20.84;50.74;96945.25;5042796;28;20229;-91
2022/05/26 10:55:20;;;;;;;0.40;0.40;;;;;;;20.93;49.38;96947.38;5043808;28;20574;-91
2022/05/26 10:57:54;;;;;;;1.13;0.55;;;;;;;20.84;53.74;96948.72;5043255;28;20236;-87
2022/05/26 11:00:27;;;;;;;0.98;0.43;;;;;;;20.92;54.42;96947.63;5043445;28;20211;-89
2022/05/26 11:02:57;;;;;;;0.68;0.50;;;;;;;20.76;54.33;96942.03;5043077;28;20237;-89
2022/05/26 11:05:33;;;;;;;0.65;0.47;;;;;;;20.82;54.83;96943.81;5043150;28;20201;-90
2022/05/26 11:08:15;;;;;;;0.47;0.40;;;;;;;20.57;54.54;96938.50;5043650;28;20204;-89
2022/05/26 11:10:45;;;;;;;0.40;0.40;;;;;;;20.84;54.12;96938.00;5043430;28;20611;-87
2022/05/26 11:13:19;;;;;;;0.63;0.43;;;;;;;20.78;57.26;96942.63;5042963;28;20387;-89
2022/05/26 11:18:40;;;;;;;0.38;0.38;;;;;;;21.40;55.55;96945.75;5043706;28;20216;-90
2022/05/26 11:21:19;;;;;;;0.63;0.40;;;;;;;21.31;55.62;96953.31;5042955;28;20225;-90
2022/05/26 11:23:46;;;;;;;2.70;0.70;;;;;;;21.02;56.29;96953.28;5042780;28;20201;-89
2022/05/26 11:26:27;;;;;;;0.65;0.52;;;;;;;20.85;52.40;96946.88;5043164;28;20657;-90
2022/05/26 11:28:59;;;;;;;0.50;0.47;;;;;;;20.85;53.88;96946.88;5043059;28;20204;-89
2022/05/26 11:37:21;;;;;;;1.48;0.40;;;;;;;21.56;52.28;96938.78;5042475;28;20522;-87
2022/05/26 11:39:53;;;;;;;2.08;0.50;;;;;;;21.51;52.08;96953.88;5042286;28;20588;-88
2022/05/26 11:42:30;;;;;;;2.15;0.52;;;;;;;21.33;54.20;96945.03;5042380;28;20820;-88
2022/05/26 11:45:11;;;;;;;0.68;0.63;;;;;;;21.35;52.41;96949.13;5043139;28;20633;-88
2022/05/26 11:47:51;;;;;;;1.38;0.50;;;;;;;21.06;53.05;96949.09;5042552;28;20205;-88
2022/05/26 11:50:25;;;;;;;0.60;0.43;;;;;;;21.00;53.92;96939.28;5043232;28;20205;-89
2022/05/26 11:53:12;;;;;;;2.30;0.45;;;;;;;21.15;52.73;96945.88;5043099;28;20231;-88
2022/05/26 11:55:49;;;;;;;1.42;0.70;;;;;;;21.01;52.02;96939.03;5047072;28;20201;-88
2022/05/26 11:58:29;;;;;;;1.30;0.50;;;;;;;21.16;52.97;96942.16;5046362;28;20205;-88
2022/05/26 12:01:12;;;;;;;1.58;0.50;;;;;;;21.08;52.27;96945.16;5045826;28;20225;-89
2022/05/26 12:03:50;;;;;;;1.20;0.50;;;;;;;20.98;53.77;96939.50;5046821;28;20306;-89
2022/05/26 12:06:30;;;;;;;0.90;0.55;;;;;;;20.86;52.04;96943.97;5047080;28;20231;-89
2022/05/26 12:09:04;;;;;;;0.77;0.40;;;;;;;20.98;54.29;96938.69;5046446;28;20271;-89
2022/05/26 12:11:54;;;;;;;0.40;0.40;;;;;;;21.21;51.71;96936.13;5046162;28;20477;-90
2022/05/26 12:14:23;;;;;;;1.65;0.50;;;;;;;21.25;52.08;96942.69;5045733;28;20205;-89
2022/05/26 12:16:50;;;;;;;0.40;0.40;;;;;;;21.04;53.74;96943.97;5045678;28;20216;-88
2022/05/26 12:19:40;;;;;;;1.98;0.50;;;;;;;20.95;53.35;96937.28;5046419;28;20778;-90
2022/05/26 12:22:20;;;;;;;1.35;0.52;;;;;;;20.64;55.80;96933.06;5046167;28;20270;-88
2022/05/26 12:25:01;;;;;;;1.05;0.40;;;;;;;20.22;54.94;96939.25;5046316;28;20559;-89
2022/05/26 12:28:20;;;;;;;1.10;0.45;;;;;;;20.23;55.12;96935.53;5046417;28;20209;-88